sensor_id;sensor_type;location;lat;lon;timestamp;pressure;altitude;pressure_sealevel;temperature;humidity
63773;BME280;49919;53.612;55.898;2022-08-19T00:00:40;100857.91;;;14.99;39.44
63773;BME280;49919;53.612;55.898;2022-08-19T00:02:11;100853.38;;;15.00;39.45
63773;BME280;49919;53.612;55.898;2022-08-19T00:03:42;100859.78;;;14.99;39.43
63773;BME280;49919;53.612;55.898;2022-08-19T00:05:14;100853.59;;;14.98;39.56
63773;BME280;49919;53.612;55.898;2022-08-19T00:06:46;100860.81;;;14.98;39.79
63773;BME280;49919;53.612;55.898;2022-08-19T00:08:17;100868.88;;;14.98;39.61
63773;BME280;49919;53.612;55.898;2022-08-19T00:09:48;100866.19;;;14.98;39.58
63773;BME280;49919;53.612;55.898;2022-08-19T00:11:19;100864.56;;;14.97;39.61
63773;BME280;49919;53.612;55.898;2022-08-19T00:12:50;100870.13;;;14.95;39.72
63773;BME280;49919;53.612;55.898;2022-08-19T00:14:22;100865.72;;;14.89;39.74
63773;BME280;49919;53.612;55.898;2022-08-19T00:15:55;100872.13;;;14.88;40.02
63773;BME280;49919;53.612;55.898;2022-08-19T00:17:26;100868.63;;;14.88;39.88
63773;BME280;49919;53.612;55.898;2022-08-19T00:18:57;100865.72;;;14.89;39.83
63773;BME280;49919;53.612;55.898;2022-08-19T00:20:28;100865.13;;;14.87;39.95
63773;BME280;49919;53.612;55.898;2022-08-19T00:21:59;100867.81;;;14.87;39.88
63773;BME280;49919;53.612;55.898;2022-08-19T00:23:30;100879.94;;;14.90;39.84
63773;BME280;49919;53.612;55.898;2022-08-19T00:25:06;100872.13;;;14.88;39.87
63773;BME280;49919;53.612;55.898;2022-08-19T00:26:38;100880.38;;;14.87;40.06
63773;BME280;49919;53.612;55.898;2022-08-19T00:28:10;100886.56;;;14.87;40.00
63773;BME280;49919;53.612;55.898;2022-08-19T00:29:40;100887.59;;;14.86;40.22
63773;BME280;49919;53.612;55.898;2022-08-19T00:31:11;100893.41;;;14.83;40.37
63773;BME280;49919;53.612;55.898;2022-08-19T00:32:42;100895.25;;;14.83;40.43
63773;BME280;49919;53.612;55.898;2022-08-19T00:34:14;100890.13;;;14.81;40.02
63773;BME280;49919;53.612;55.898;2022-08-19T00:35:45;100904.25;;;14.88;40.46
63773;BME280;49919;53.612;55.898;2022-08-19T00:37:16;100904.25;;;14.88;40.38
63773;BME280;49919;53.612;55.898;2022-08-19T00:38:47;100908.56;;;14.89;40.56
63773;BME280;49919;53.612;55.898;2022-08-19T00:40:18;100905.06;;;14.89;40.53
63773;BME280;49919;53.612;55.898;2022-08-19T00:41:50;100911.91;;;14.85;40.52
63773;BME280;49919;53.612;55.898;2022-08-19T00:43:23;100909.91;;;14.80;40.70
63773;BME280;49919;53.612;55.898;2022-08-19T00:44:54;100916.09;;;14.81;40.32
63773;BME280;49919;53.612;55.898;2022-08-19T00:46:26;100917.13;;;14.80;40.60
63773;BME280;49919;53.612;55.898;2022-08-19T00:47:57;100923.53;;;14.79;40.43
63773;BME280;49919;53.612;55.898;2022-08-19T00:49:35;100927.84;;;14.80;40.70
63773;BME280;49919;53.612;55.898;2022-08-19T00:51:07;100925.84;;;14.75;40.83
63773;BME280;49919;53.612;55.898;2022-08-19T00:52:42;100922.56;;;14.73;40.76
63773;BME280;49919;53.612;55.898;2022-08-19T00:54:16;100919.78;;;14.68;40.85
63773;BME280;49919;53.612;55.898;2022-08-19T00:55:50;100930.25;;;14.69;40.86
63773;BME280;49919;53.612;55.898;2022-08-19T00:57:47;100932.13;;;14.69;40.57
63773;BME280;49919;53.612;55.898;2022-08-19T00:59:19;100932.34;;;14.67;40.94
63773;BME280;49919;53.612;55.898;2022-08-19T01:00:50;100933.59;;;14.65;41.16
63773;BME280;49919;53.612;55.898;2022-08-19T01:02:22;100938.38;;;14.63;41.26
63773;BME280;49919;53.612;55.898;2022-08-19T01:03:53;100933.25;;;14.61;41.11
63773;BME280;49919;53.612;55.898;2022-08-19T01:05:27;100941.06;;;14.63;41.03
63773;BME280;49919;53.612;55.898;2022-08-19T01:06:59;100940.00;;;14.64;40.93
63773;BME280;49919;53.612;55.898;2022-08-19T01:08:32;100940.81;;;14.64;41.02
63773;BME280;49919;53.612;55.898;2022-08-19T01:10:10;100942.47;;;14.65;41.06
63773;BME280;49919;53.612;55.898;2022-08-19T01:11:43;100938.38;;;14.63;41.04
63773;BME280;49919;53.612;55.898;2022-08-19T01:13:17;100941.88;;;14.63;41.09
63773;BME280;49919;53.612;55.898;2022-08-19T01:14:50;100941.88;;;14.63;41.07
63773;BME280;49919;53.612;55.898;2022-08-19T01:16:25;100943.13;;;14.61;41.27
63773;BME280;49919;53.612;55.898;2022-08-19T01:17:59;100946.41;;;14.63;41.21
63773;BME280;49919;53.612;55.898;2022-08-19T01:19:40;100956.88;;;14.64;41.18
63773;BME280;49919;53.612;55.898;2022-08-19T01:22:55;100961.63;;;14.62;41.27
63773;BME280;49919;53.612;55.898;2022-08-19T01:24:26;100964.09;;;14.64;40.97
63773;BME280;49919;53.612;55.898;2022-08-19T01:25:57;100959.56;;;14.64;41.08
63773;BME280;49919;53.612;55.898;2022-08-19T01:27:39;100956.50;;;14.61;41.05
63773;BME280;49919;53.612;55.898;2022-08-19T01:29:11;100965.72;;;14.65;41.24
63773;BME280;49919;53.612;55.898;2022-08-19T01:30:43;100974.34;;;14.67;41.09
63773;BME280;49919;53.612;55.898;2022-08-19T01:32:16;100968.19;;;14.66;40.96
63773;BME280;49919;53.612;55.898;2022-08-19T01:33:48;100980.75;;;14.66;40.89
63773;BME280;49919;53.612;55.898;2022-08-19T01:35:21;100979.25;;;14.70;41.11
63773;BME280;49919;53.612;55.898;2022-08-19T01:36:54;100976.09;;;14.73;40.99
63773;BME280;49919;53.612;55.898;2022-08-19T01:38:26;100985.56;;;14.75;40.93
63773;BME280;49919;53.612;55.898;2022-08-19T01:39:57;100984.28;;;14.78;41.00
63773;BME280;49919;53.612;55.898;2022-08-19T01:41:28;100992.47;;;14.83;41.02
63773;BME280;49919;53.612;55.898;2022-08-19T01:43:00;100995.75;;;14.85;40.87
63773;BME280;49919;53.612;55.898;2022-08-19T01:44:31;100999.84;;;14.88;40.73
63773;BME280;49919;53.612;55.898;2022-08-19T01:46:02;101001.69;;;14.87;40.71
63773;BME280;49919;53.612;55.898;2022-08-19T01:47:37;101007.63;;;14.89;40.76
63773;BME280;49919;53.612;55.898;2022-08-19T01:49:08;101004.50;;;14.92;40.86
63773;BME280;49919;53.612;55.898;2022-08-19T01:50:39;101008.56;;;14.95;40.68
63773;BME280;49919;53.612;55.898;2022-08-19T01:52:10;101013.72;;;14.96;40.85
63773;BME280;49919;53.612;55.898;2022-08-19T01:53:41;101013.25;;;14.99;40.63
63773;BME280;49919;53.612;55.898;2022-08-19T01:55:15;101022.09;;;15.00;40.81
63773;BME280;49919;53.612;55.898;2022-08-19T01:56:47;101018.38;;;15.01;40.59
63773;BME280;49919;53.612;55.898;2022-08-19T01:58:23;101016.09;;;15.04;40.61
63773;BME280;49919;53.612;55.898;2022-08-19T01:59:56;101030.06;;;15.06;40.72
63773;BME280;49919;53.612;55.898;2022-08-19T02:01:27;101021.59;;;15.09;40.35
63773;BME280;49919;53.612;55.898;2022-08-19T02:03:02;101019.59;;;15.17;40.37
63773;BME280;49919;53.612;55.898;2022-08-19T02:04:34;101026.16;;;15.21;40.34
63773;BME280;49919;53.612;55.898;2022-08-19T02:06:05;101017.66;;;15.24;40.28
63773;BME280;49919;53.612;55.898;2022-08-19T02:07:37;101019.31;;;15.25;40.28
63773;BME280;49919;53.612;55.898;2022-08-19T02:09:08;101020.25;;;15.30;40.10
63773;BME280;49919;53.612;55.898;2022-08-19T02:10:43;101024.94;;;15.35;40.06
63773;BME280;49919;53.612;55.898;2022-08-19T02:12:14;101024.94;;;15.35;39.84
63773;BME280;49919;53.612;55.898;2022-08-19T02:13:47;101026.69;;;15.41;39.88
63773;BME280;49919;53.612;55.898;2022-08-19T02:15:20;101034.84;;;15.46;39.78
63773;BME280;49919;53.612;55.898;2022-08-19T02:16:52;101031.28;;;15.52;39.58
63773;BME280;49919;53.612;55.898;2022-08-19T02:18:23;101036.19;;;15.55;39.70
63773;BME280;49919;53.612;55.898;2022-08-19T02:19:55;101041.94;;;15.59;39.61
63773;BME280;49919;53.612;55.898;2022-08-19T02:21:27;101040.84;;;15.60;39.54
63773;BME280;49919;53.612;55.898;2022-08-19T02:22:58;101042.72;;;15.59;39.63
63773;BME280;49919;53.612;55.898;2022-08-19T02:24:31;101050.53;;;15.61;39.56
63773;BME280;49919;53.612;55.898;2022-08-19T02:26:02;101051.13;;;15.63;39.75
63773;BME280;49919;53.612;55.898;2022-08-19T02:27:33;101048.91;;;15.60;39.53
63773;BME280;49919;53.612;55.898;2022-08-19T02:29:04;101060.34;;;15.67;39.40
63773;BME280;49919;53.612;55.898;2022-08-19T02:30:41;101063.41;;;15.70;39.57
63773;BME280;49919;53.612;55.898;2022-08-19T02:32:12;101064.34;;;15.76;39.28
63773;BME280;49919;53.612;55.898;2022-08-19T02:33:45;101060.72;;;15.82;39.30
63773;BME280;49919;53.612;55.898;2022-08-19T02:35:19;101061.66;;;15.88;39.02
63773;BME280;49919;53.612;55.898;2022-08-19T02:36:51;101065.97;;;15.89;39.27
63773;BME280;49919;53.612;55.898;2022-08-19T02:38:22;101064.72;;;15.91;39.23
63773;BME280;49919;53.612;55.898;2022-08-19T02:39:56;101069.25;;;15.91;39.25
63773;BME280;49919;53.612;55.898;2022-08-19T02:41:29;101068.81;;;15.94;39.26
63773;BME280;49919;53.612;55.898;2022-08-19T02:43:03;101063.78;;;15.97;39.20
63773;BME280;49919;53.612;55.898;2022-08-19T02:44:36;101069.53;;;16.01;39.24
63773;BME280;49919;53.612;55.898;2022-08-19T02:46:28;101072.06;;;16.07;39.31
63773;BME280;49919;53.612;55.898;2022-08-19T02:48:00;101070.19;;;16.08;39.08
63773;BME280;49919;53.612;55.898;2022-08-19T02:49:31;101070.19;;;16.08;38.93
63773;BME280;49919;53.612;55.898;2022-08-19T02:51:02;101074.06;;;16.12;38.76
63773;BME280;49919;53.612;55.898;2022-08-19T02:52:33;101072.19;;;16.13;38.83
63773;BME280;49919;53.612;55.898;2022-08-19T02:54:06;101074.19;;;16.17;38.50
63773;BME280;49919;53.612;55.898;2022-08-19T02:55:43;101072.78;;;16.15;38.65
63773;BME280;49919;53.612;55.898;2022-08-19T02:57:15;101084.22;;;16.22;38.61
63773;BME280;49919;53.612;55.898;2022-08-19T02:58:46;101079.69;;;16.22;38.39
63773;BME280;49919;53.612;55.898;2022-08-19T03:00:18;101083.03;;;16.29;38.52
63773;BME280;49919;53.612;55.898;2022-08-19T03:01:49;101089.81;;;16.32;38.54
63773;BME280;49919;53.612;55.898;2022-08-19T03:03:20;101084.56;;;16.37;38.47
63773;BME280;49919;53.612;55.898;2022-08-19T03:04:51;101080.84;;;16.38;38.48
63773;BME280;49919;53.612;55.898;2022-08-19T03:06:23;101085.50;;;16.42;38.40
63773;BME280;49919;53.612;55.898;2022-08-19T03:07:54;101094.47;;;16.48;38.31
63773;BME280;49919;53.612;55.898;2022-08-19T03:09:24;101089.09;;;16.48;38.58
63773;BME280;49919;53.612;55.898;2022-08-19T03:10:55;101084.09;;;16.52;38.19
63773;BME280;49919;53.612;55.898;2022-08-19T03:12:26;101090.03;;;16.54;38.44
63773;BME280;49919;53.612;55.898;2022-08-19T03:13:58;101091.69;;;16.55;38.43
63773;BME280;49919;53.612;55.898;2022-08-19T03:15:30;101093.06;;;16.57;38.21
63773;BME280;49919;53.612;55.898;2022-08-19T03:17:04;101089.50;;;16.63;38.38
63773;BME280;49919;53.612;55.898;2022-08-19T03:18:36;101099.25;;;16.69;38.21
63773;BME280;49919;53.612;55.898;2022-08-19T03:20:07;101087.59;;;16.75;38.03
63773;BME280;49919;53.612;55.898;2022-08-19T03:21:45;101103.13;;;16.85;37.83
63773;BME280;49919;53.612;55.898;2022-08-19T03:23:17;101102.38;;;16.90;37.81
63773;BME280;49919;53.612;55.898;2022-08-19T03:24:48;101096.88;;;16.96;37.56
63773;BME280;49919;53.612;55.898;2022-08-19T03:26:19;101106.22;;;17.05;37.60
63773;BME280;49919;53.612;55.898;2022-08-19T03:27:50;101103.13;;;17.13;36.81
63773;BME280;49919;53.612;55.898;2022-08-19T03:29:26;101104.66;;;17.21;36.74
63773;BME280;49919;53.612;55.898;2022-08-19T03:31:07;101106.88;;;17.24;36.43
63773;BME280;49919;53.612;55.898;2022-08-19T03:32:39;101103.94;;;17.26;36.35
63773;BME280;49919;53.612;55.898;2022-08-19T03:34:16;101109.66;;;17.29;36.40
63773;BME280;49919;53.612;55.898;2022-08-19T03:36:00;101115.22;;;17.39;36.31
63773;BME280;49919;53.612;55.898;2022-08-19T03:37:31;101109.00;;;17.39;36.35
63773;BME280;49919;53.612;55.898;2022-08-19T03:39:02;101110.50;;;17.46;36.10
63773;BME280;49919;53.612;55.898;2022-08-19T03:40:36;101119.00;;;17.55;36.15
63773;BME280;49919;53.612;55.898;2022-08-19T03:42:08;101117.47;;;17.59;36.00
63773;BME280;49919;53.612;55.898;2022-08-19T03:43:40;101122.72;;;17.66;35.58
63773;BME280;49919;53.612;55.898;2022-08-19T03:45:11;101128.19;;;17.71;35.71
63773;BME280;49919;53.612;55.898;2022-08-19T03:46:43;101119.16;;;17.77;35.63
63773;BME280;49919;53.612;55.898;2022-08-19T03:48:14;101123.91;;;17.87;35.32
63773;BME280;49919;53.612;55.898;2022-08-19T03:49:47;101117.47;;;17.88;35.19
63773;BME280;49919;53.612;55.898;2022-08-19T03:51:26;101115.09;;;17.91;34.91
63773;BME280;49919;53.612;55.898;2022-08-19T03:52:57;101116.50;;;17.94;34.50
63773;BME280;49919;53.612;55.898;2022-08-19T03:54:28;101112.00;;;17.99;34.60
63773;BME280;49919;53.612;55.898;2022-08-19T03:56:00;101120.72;;;18.06;34.26
63773;BME280;49919;53.612;55.898;2022-08-19T03:57:33;101112.91;;;18.05;34.18
63773;BME280;49919;53.612;55.898;2022-08-19T03:59:06;101130.84;;;18.16;34.27
63773;BME280;49919;53.612;55.898;2022-08-19T04:00:42;101130.09;;;18.21;34.38
63773;BME280;49919;53.612;55.898;2022-08-19T04:02:13;101129.56;;;18.19;34.09
63773;BME280;49919;53.612;55.898;2022-08-19T04:03:45;101133.78;;;18.14;34.27
63773;BME280;49919;53.612;55.898;2022-08-19T04:05:19;101133.84;;;18.20;34.53
63773;BME280;49919;53.612;55.898;2022-08-19T04:06:51;101145.19;;;18.22;34.12
63773;BME280;49919;53.612;55.898;2022-08-19T04:08:23;101141.63;;;18.16;34.46
63773;BME280;49919;53.612;55.898;2022-08-19T04:09:53;101143.50;;;18.15;33.55
63773;BME280;49919;53.612;55.898;2022-08-19T04:11:28;101135.19;;;18.17;34.07
63773;BME280;49919;53.612;55.898;2022-08-19T04:12:59;101140.63;;;18.22;33.97
63773;BME280;49919;53.612;55.898;2022-08-19T04:14:31;101138.59;;;18.29;33.71
63773;BME280;49919;53.612;55.898;2022-08-19T04:16:03;101138.34;;;18.31;33.64
63773;BME280;49919;53.612;55.898;2022-08-19T04:17:34;101138.44;;;18.36;33.28
63773;BME280;49919;53.612;55.898;2022-08-19T04:19:06;101139.88;;;18.43;33.05
63773;BME280;49919;53.612;55.898;2022-08-19T04:20:45;101142.41;;;18.50;33.64
63773;BME280;49919;53.612;55.898;2022-08-19T04:22:16;101145.50;;;18.59;33.42
63773;BME280;49919;53.612;55.898;2022-08-19T04:23:47;101146.16;;;18.66;33.61
63773;BME280;49919;53.612;55.898;2022-08-19T04:25:18;101150.00;;;18.70;33.57
63773;BME280;49919;53.612;55.898;2022-08-19T04:26:49;101150.16;;;18.80;33.30
63773;BME280;49919;53.612;55.898;2022-08-19T04:28:22;101152.47;;;18.93;33.20
63773;BME280;49919;53.612;55.898;2022-08-19T04:29:53;101155.56;;;19.02;33.30
63773;BME280;49919;53.612;55.898;2022-08-19T04:31:29;101156.19;;;19.09;33.42
63773;BME280;49919;53.612;55.898;2022-08-19T04:33:00;101155.69;;;19.12;33.06
63773;BME280;49919;53.612;55.898;2022-08-19T04:34:31;101153.56;;;19.14;32.65
63773;BME280;49919;53.612;55.898;2022-08-19T04:36:02;101158.19;;;19.18;32.39
63773;BME280;49919;53.612;55.898;2022-08-19T04:37:33;101153.31;;;19.15;32.71
63773;BME280;49919;53.612;55.898;2022-08-19T04:39:07;101157.94;;;19.20;32.34
63773;BME280;49919;53.612;55.898;2022-08-19T04:40:43;101155.00;;;19.22;32.34
63773;BME280;49919;53.612;55.898;2022-08-19T04:42:32;101157.81;;;19.32;32.70
63773;BME280;49919;53.612;55.898;2022-08-19T04:44:10;101156.19;;;19.31;32.27
63773;BME280;49919;53.612;55.898;2022-08-19T04:45:43;101163.28;;;19.37;32.18
63773;BME280;49919;53.612;55.898;2022-08-19T04:47:14;101155.63;;;19.50;32.11
63773;BME280;49919;53.612;55.898;2022-08-19T04:48:45;101163.84;;;19.61;31.81
63773;BME280;49919;53.612;55.898;2022-08-19T04:50:16;101165.78;;;19.65;31.61
63773;BME280;49919;53.612;55.898;2022-08-19T04:51:52;101159.06;;;19.68;31.67
63773;BME280;49919;53.612;55.898;2022-08-19T04:53:29;101170.97;;;19.72;31.93
63773;BME280;49919;53.612;55.898;2022-08-19T04:55:00;101171.31;;;19.80;31.60
63773;BME280;49919;53.612;55.898;2022-08-19T04:56:31;101160.59;;;19.85;31.68
63773;BME280;49919;53.612;55.898;2022-08-19T04:58:02;101166.38;;;19.99;31.38
63773;BME280;49919;53.612;55.898;2022-08-19T04:59:33;101163.41;;;20.01;31.41
63773;BME280;49919;53.612;55.898;2022-08-19T05:01:04;101167.50;;;20.03;31.56
63773;BME280;49919;53.612;55.898;2022-08-19T05:02:35;101165.34;;;20.05;31.76
63773;BME280;49919;53.612;55.898;2022-08-19T05:04:06;101165.63;;;20.04;31.86
63773;BME280;49919;53.612;55.898;2022-08-19T05:05:39;101167.84;;;20.12;31.63
63773;BME280;49919;53.612;55.898;2022-08-19T05:07:13;101167.63;;;20.18;31.80
63773;BME280;49919;53.612;55.898;2022-08-19T05:08:44;101163.34;;;20.23;31.74
63773;BME280;49919;53.612;55.898;2022-08-19T05:10:16;101165.31;;;20.32;31.50
63773;BME280;49919;53.612;55.898;2022-08-19T05:11:47;101174.28;;;20.38;31.59
63773;BME280;49919;53.612;55.898;2022-08-19T05:13:19;101175.97;;;20.44;31.43
63773;BME280;49919;53.612;55.898;2022-08-19T05:14:50;101171.94;;;20.46;31.79
63773;BME280;49919;53.612;55.898;2022-08-19T05:16:24;101173.34;;;20.59;31.18
63773;BME280;49919;53.612;55.898;2022-08-19T05:17:56;101175.84;;;20.66;31.32
63773;BME280;49919;53.612;55.898;2022-08-19T05:19:45;101168.84;;;20.70;31.21
63773;BME280;49919;53.612;55.898;2022-08-19T05:21:34;101177.00;;;20.80;31.11
63773;BME280;49919;53.612;55.898;2022-08-19T05:23:24;101174.03;;;20.81;30.87
63773;BME280;49919;53.612;55.898;2022-08-19T05:24:55;101174.84;;;20.82;31.16
63773;BME280;49919;53.612;55.898;2022-08-19T05:26:26;101176.25;;;20.90;30.55
63773;BME280;49919;53.612;55.898;2022-08-19T05:27:57;101175.97;;;20.86;30.38
63773;BME280;49919;53.612;55.898;2022-08-19T05:29:29;101175.75;;;20.93;30.42
63773;BME280;49919;53.612;55.898;2022-08-19T05:31:01;101175.22;;;21.01;30.48
63773;BME280;49919;53.612;55.898;2022-08-19T05:32:33;101170.66;;;21.06;29.97
63773;BME280;49919;53.612;55.898;2022-08-19T05:34:04;101173.41;;;21.11;30.28
63773;BME280;49919;53.612;55.898;2022-08-19T05:35:36;101178.84;;;21.16;30.08
63773;BME280;49919;53.612;55.898;2022-08-19T05:37:08;101184.31;;;21.27;29.95
63773;BME280;49919;53.612;55.898;2022-08-19T05:38:39;101191.88;;;21.30;29.82
63773;BME280;49919;53.612;55.898;2022-08-19T05:40:10;101187.88;;;21.37;29.83
63773;BME280;49919;53.612;55.898;2022-08-19T05:41:42;101187.06;;;21.37;29.84
63773;BME280;49919;53.612;55.898;2022-08-19T05:43:14;101185.13;;;21.32;29.71
63773;BME280;49919;53.612;55.898;2022-08-19T05:44:46;101179.44;;;21.29;29.65
63773;BME280;49919;53.612;55.898;2022-08-19T05:46:19;101179.47;;;21.34;29.59
63773;BME280;49919;53.612;55.898;2022-08-19T05:47:50;101173.56;;;21.42;29.58
63773;BME280;49919;53.612;55.898;2022-08-19T05:49:22;101181.66;;;21.47;29.53
63773;BME280;49919;53.612;55.898;2022-08-19T05:50:53;101180.88;;;21.51;29.48
63773;BME280;49919;53.612;55.898;2022-08-19T05:52:24;101168.19;;;21.62;29.35
63773;BME280;49919;53.612;55.898;2022-08-19T05:53:55;101174.72;;;21.76;29.46
63773;BME280;49919;53.612;55.898;2022-08-19T05:55:26;101176.91;;;21.79;29.15
63773;BME280;49919;53.612;55.898;2022-08-19T05:56:57;101167.41;;;21.77;29.14
63773;BME280;49919;53.612;55.898;2022-08-19T05:58:28;101179.06;;;21.82;29.13
63773;BME280;49919;53.612;55.898;2022-08-19T05:59:59;101182.56;;;21.88;29.34
63773;BME280;49919;53.612;55.898;2022-08-19T06:01:44;101169.88;;;21.99;28.78
63773;BME280;49919;53.612;55.898;2022-08-19T06:03:19;101171.50;;;21.95;28.94
63773;BME280;49919;53.612;55.898;2022-08-19T06:04:49;101176.91;;;21.95;29.16
63773;BME280;49919;53.612;55.898;2022-08-19T06:06:21;101172.09;;;22.07;28.93
63773;BME280;49919;53.612;55.898;2022-08-19T06:07:52;101168.81;;;22.10;28.60
63773;BME280;49919;53.612;55.898;2022-08-19T06:09:23;101175.34;;;22.04;28.70
63773;BME280;49919;53.612;55.898;2022-08-19T06:10:55;101173.69;;;22.13;28.89
63773;BME280;49919;53.612;55.898;2022-08-19T06:12:30;101171.53;;;22.20;28.84
63773;BME280;49919;53.612;55.898;2022-08-19T06:14:10;101175.06;;;22.36;28.75
63773;BME280;49919;53.612;55.898;2022-08-19T06:15:42;101169.38;;;22.47;28.99
63773;BME280;49919;53.612;55.898;2022-08-19T06:17:14;101176.66;;;22.62;28.39
63773;BME280;49919;53.612;55.898;2022-08-19T06:18:45;101165.00;;;22.62;28.34
63773;BME280;49919;53.612;55.898;2022-08-19T06:20:16;101167.16;;;22.60;28.54
63773;BME280;49919;53.612;55.898;2022-08-19T06:21:49;101167.13;;;22.75;28.31
63773;BME280;49919;53.612;55.898;2022-08-19T06:23:21;101165.53;;;22.84;28.03
63773;BME280;49919;53.612;55.898;2022-08-19T06:24:52;101160.34;;;22.93;27.92
63773;BME280;49919;53.612;55.898;2022-08-19T06:26:24;101166.28;;;23.00;27.57
63773;BME280;49919;53.612;55.898;2022-08-19T06:27:57;101164.38;;;23.00;27.39
63773;BME280;49919;53.612;55.898;2022-08-19T06:29:28;101161.16;;;22.93;27.49
63773;BME280;49919;53.612;55.898;2022-08-19T06:31:06;101161.94;;;23.04;27.64
63773;BME280;49919;53.612;55.898;2022-08-19T06:32:37;101153.75;;;23.14;27.71
63773;BME280;49919;53.612;55.898;2022-08-19T06:34:08;101152.63;;;23.25;27.12
63773;BME280;49919;53.612;55.898;2022-08-19T06:35:40;101161.84;;;23.24;26.76
63773;BME280;49919;53.612;55.898;2022-08-19T06:37:12;101157.81;;;23.16;26.73
63773;BME280;49919;53.612;55.898;2022-08-19T06:38:43;101155.66;;;23.13;26.89
63773;BME280;49919;53.612;55.898;2022-08-19T06:40:14;101164.34;;;23.15;27.06
63773;BME280;49919;53.612;55.898;2022-08-19T06:41:47;101160.81;;;23.15;26.81
63773;BME280;49919;53.612;55.898;2022-08-19T06:43:21;101163.25;;;23.16;27.01
63773;BME280;49919;53.612;55.898;2022-08-19T06:44:53;101161.31;;;23.22;27.01
63773;BME280;49919;53.612;55.898;2022-08-19T06:46:24;101161.03;;;23.23;27.07
63773;BME280;49919;53.612;55.898;2022-08-19T06:47:55;101165.88;;;23.32;26.73
63773;BME280;49919;53.612;55.898;2022-08-19T06:49:26;101166.91;;;23.41;26.70
63773;BME280;49919;53.612;55.898;2022-08-19T06:51:01;101172.84;;;23.48;26.39
63773;BME280;49919;53.612;55.898;2022-08-19T06:52:34;101166.34;;;23.54;26.26
63773;BME280;49919;53.612;55.898;2022-08-19T06:54:05;101174.69;;;23.63;25.94
63773;BME280;49919;53.612;55.898;2022-08-19T06:55:36;101175.75;;;23.67;26.00
63773;BME280;49919;53.612;55.898;2022-08-19T06:57:08;101182.25;;;23.71;25.93
63773;BME280;49919;53.612;55.898;2022-08-19T06:58:43;101169.47;;;23.76;26.04
63773;BME280;49919;53.612;55.898;2022-08-19T07:00:14;101180.53;;;23.85;25.88
63773;BME280;49919;53.612;55.898;2022-08-19T07:01:50;101172.31;;;23.95;25.84
63773;BME280;49919;53.612;55.898;2022-08-19T07:03:22;101167.03;;;24.09;25.93
63773;BME280;49919;53.612;55.898;2022-08-19T07:04:53;101172.16;;;24.15;25.71
63773;BME280;49919;53.612;55.898;2022-08-19T07:06:24;101170.78;;;24.18;25.83
63773;BME280;49919;53.612;55.898;2022-08-19T07:07:56;101165.28;;;24.28;25.77
63773;BME280;49919;53.612;55.898;2022-08-19T07:09:29;101168.78;;;24.34;25.94
63773;BME280;49919;53.612;55.898;2022-08-19T07:10:59;101172.78;;;24.41;25.72
63773;BME280;49919;53.612;55.898;2022-08-19T07:12:32;101177.88;;;24.48;25.58
63773;BME280;49919;53.612;55.898;2022-08-19T07:14:04;101181.09;;;24.55;25.75
63773;BME280;49919;53.612;55.898;2022-08-19T07:15:36;101178.56;;;24.64;25.65
63773;BME280;49919;53.612;55.898;2022-08-19T07:17:10;101169.72;;;24.77;25.58
63773;BME280;49919;53.612;55.898;2022-08-19T07:18:41;101170.72;;;24.86;25.23
63773;BME280;49919;53.612;55.898;2022-08-19T07:20:12;101176.59;;;24.93;25.17
63773;BME280;49919;53.612;55.898;2022-08-19T07:21:47;101178.16;;;25.04;25.01
63773;BME280;49919;53.612;55.898;2022-08-19T07:23:18;101171.72;;;24.95;24.88
63773;BME280;49919;53.612;55.898;2022-08-19T07:24:49;101168.41;;;24.98;25.21
63773;BME280;49919;53.612;55.898;2022-08-19T07:26:23;101172.03;;;25.12;25.22
63773;BME280;49919;53.612;55.898;2022-08-19T07:27:55;101171.88;;;25.27;25.13
63773;BME280;49919;53.612;55.898;2022-08-19T07:29:27;101170.09;;;25.37;24.92
63773;BME280;49919;53.612;55.898;2022-08-19T07:31:00;101171.94;;;25.41;24.80
63773;BME280;49919;53.612;55.898;2022-08-19T07:32:32;101169.50;;;25.64;24.60
63773;BME280;49919;53.612;55.898;2022-08-19T07:34:07;101166.25;;;25.80;24.45
63773;BME280;49919;53.612;55.898;2022-08-19T07:35:38;101171.09;;;25.83;24.11
63773;BME280;49919;53.612;55.898;2022-08-19T07:37:09;101173.81;;;25.83;24.35
63773;BME280;49919;53.612;55.898;2022-08-19T07:38:43;101173.75;;;25.88;24.24
63773;BME280;49919;53.612;55.898;2022-08-19T07:40:14;101170.78;;;26.04;24.44
63773;BME280;49919;53.612;55.898;2022-08-19T07:41:46;101177.94;;;26.18;24.06
63773;BME280;49919;53.612;55.898;2022-08-19T07:43:17;101170.03;;;26.17;24.04
63773;BME280;49919;53.612;55.898;2022-08-19T07:44:56;101162.47;;;26.14;24.02
63773;BME280;49919;53.612;55.898;2022-08-19T07:46:26;101169.53;;;26.15;24.08
63773;BME280;49919;53.612;55.898;2022-08-19T07:48:01;101155.59;;;26.16;24.00
63773;BME280;49919;53.612;55.898;2022-08-19T07:49:33;101165.59;;;26.21;24.17
63773;BME280;49919;53.612;55.898;2022-08-19T07:51:05;101169.28;;;26.30;24.00
63773;BME280;49919;53.612;55.898;2022-08-19T07:52:37;101177.19;;;26.45;23.91
63773;BME280;49919;53.612;55.898;2022-08-19T07:54:10;101174.38;;;26.50;23.69
63773;BME280;49919;53.612;55.898;2022-08-19T07:55:42;101173.41;;;26.60;23.72
63773;BME280;49919;53.612;55.898;2022-08-19T07:57:13;101187.63;;;26.57;23.48
63773;BME280;49919;53.612;55.898;2022-08-19T07:58:45;101183.69;;;26.49;23.55
63773;BME280;49919;53.612;55.898;2022-08-19T08:00:16;101179.53;;;26.38;23.99